Time;durP1;ratioP1;P1;durP2;ratioP2;P2;SDS_P1;SDS_P2;PMS_P1;PMS_P2;Temp;Humidity;BMP_temperature;BMP_pressure;BME280_temperature;BME280_humidity;BME280_pressure;Samples;Min_cycle;Max_cycle;Signal;HPM_P1;HPM_P2
2023/09/15 00:01:38;;;;;;;4.28;1.90;;;15.20;99.90;;;;;;4989279;28;20206;-79
2023/09/15 00:04:06;;;;;;;2.42;1.60;;;15.20;99.90;;;;;;4992813;28;20203;-78
2023/09/15 00:06:35;;;;;;;3.72;1.60;;;15.30;99.90;;;;;;4977615;28;20231;-80
2023/09/15 00:09:04;;;;;;;1.95;1.60;;;15.10;99.90;;;;;;4971058;28;20267;-80
2023/09/15 00:11:39;;;;;;;1.55;1.42;;;15.20;99.90;;;;;;4975744;28;20207;-78
2023/09/15 00:14:07;;;;;;;2.03;1.52;;;15.10;99.90;;;;;;4961147;28;20184;-79
2023/09/15 00:16:33;;;;;;;2.38;1.60;;;15.10;99.90;;;;;;4972019;28;20179;-74
2023/09/15 00:18:58;;;;;;;2.10;1.80;;;15.10;99.90;;;;;;4969150;28;20172;-76
2023/09/15 00:21:26;;;;;;;5.68;1.58;;;15.10;99.90;;;;;;4983098;28;20217;-79
2023/09/15 00:23:52;;;;;;;3.05;1.73;;;15.10;99.90;;;;;;4977757;28;20210;-79
2023/09/15 00:26:23;;;;;;;2.63;1.50;;;15.00;99.90;;;;;;4979175;28;20262;-79
2023/09/15 00:28:49;;;;;;;1.85;1.70;;;15.00;99.90;;;;;;4995831;28;20215;-79
2023/09/15 00:31:17;;;;;;;2.10;1.65;;;15.00;99.90;;;;;;4995881;28;20293;-79
2023/09/15 00:33:45;;;;;;;2.45;1.70;;;15.00;99.90;;;;;;4995506;28;20218;-78
2023/09/15 00:36:10;;;;;;;2.55;1.52;;;15.00;99.90;;;;;;4979611;28;20199;-78
2023/09/15 00:38:37;;;;;;;2.75;1.60;;;15.00;99.90;;;;;;4992198;28;20230;-79
2023/09/15 00:41:02;;;;;;;1.98;1.65;;;15.00;99.90;;;;;;4975360;28;20179;-78
2023/09/15 00:43:28;;;;;;;3.58;1.65;;;15.00;99.90;;;;;;4978894;28;20207;-79
2023/09/15 00:45:56;;;;;;;2.65;1.67;;;14.90;99.90;;;;;;4993260;28;20171;-79
2023/09/15 00:48:24;;;;;;;3.08;1.65;;;14.90;99.90;;;;;;4973831;28;20190;-79
2023/09/15 00:50:51;;;;;;;1.92;1.50;;;14.90;99.90;;;;;;4978458;28;20186;-79
2023/09/15 00:53:20;;;;;;;2.70;1.67;;;14.90;99.90;;;;;;4978717;28;20189;-79
2023/09/15 00:55:48;;;;;;;2.40;1.80;;;14.80;99.90;;;;;;4978508;28;20223;-79
2023/09/15 00:58:18;;;;;;;3.20;1.90;;;14.80;99.90;;;;;;4978277;28;20258;-80
2023/09/15 01:00:44;;;;;;;2.42;1.60;;;14.80;99.90;;;;;;4993055;28;20233;-79
2023/09/15 01:03:11;;;;;;;2.38;1.77;;;14.80;99.90;;;;;;4977560;28;20183;-80
2023/09/15 01:05:39;;;;;;;2.53;1.73;;;14.80;99.90;;;;;;4978106;28;20207;-79
2023/09/15 01:08:07;;;;;;;2.70;1.90;;;14.70;99.90;;;;;;4990834;28;20487;-78
2023/09/15 01:10:33;;;;;;;1.85;1.60;;;14.70;99.90;;;;;;4975408;28;20266;-78
2023/09/15 01:13:00;;;;;;;2.05;1.60;;;14.70;99.90;;;;;;4988466;28;20359;-79
2023/09/15 01:16:00;;;;;;;2.15;1.50;;;14.70;99.90;;;;;;4990662;28;20190;-79
2023/09/15 01:18:38;;;;;;;2.63;1.70;;;14.60;99.90;;;;;;4927591;28;20192;-79
2023/09/15 01:21:19;;;;;;;1.80;1.45;;;14.60;99.90;;;;;;4992913;28;20214;-78
2023/09/15 01:24:17;;;;;;;2.63;1.63;;;14.60;99.90;;;;;;4993451;28;20186;-79
2023/09/15 01:27:27;;;;;;;2.47;1.55;;;14.60;99.90;;;;;;4977918;28;20194;-79
2023/09/15 01:29:56;;;;;;;1.88;1.63;;;14.60;99.90;;;;;;4897082;29;20183;-80
2023/09/15 01:32:23;;;;;;;2.55;1.60;;;14.50;99.90;;;;;;4968112;28;20223;-78
2023/09/15 01:34:51;;;;;;;2.15;1.70;;;14.50;99.90;;;;;;4977824;28;20179;-78
2023/09/15 01:37:20;;;;;;;1.58;1.33;;;14.50;99.90;;;;;;4978142;28;20218;-79
2023/09/15 01:39:52;;;;;;;2.72;2.00;;;14.50;99.90;;;;;;4977568;28;20179;-75
2023/09/15 01:42:18;;;;;;;1.85;1.70;;;14.40;99.90;;;;;;4982119;28;20397;-80
2023/09/15 01:44:45;;;;;;;2.90;1.60;;;14.30;99.90;;;;;;4920888;28;1140348;-79
2023/09/15 01:47:20;;;;;;;2.00;1.73;;;14.30;99.90;;;;;;4985346;28;20183;-79
2023/09/15 01:49:55;;;;;;;3.17;1.67;;;14.20;99.90;;;;;;4978407;28;20182;-78
2023/09/15 01:52:22;;;;;;;3.05;1.80;;;14.20;99.90;;;;;;4978928;28;20197;-80
2023/09/15 01:54:49;;;;;;;2.88;1.55;;;14.20;99.90;;;;;;4985561;28;20243;-79
2023/09/15 01:57:15;;;;;;;3.58;1.80;;;14.10;99.90;;;;;;4962822;28;20187;-80
2023/09/15 01:59:49;;;;;;;2.25;1.70;;;14.10;99.90;;;;;;4989861;28;20176;-81
2023/09/15 02:02:15;;;;;;;2.60;1.60;;;14.10;99.90;;;;;;4975542;28;20269;-78
2023/09/15 02:04:43;;;;;;;2.95;1.70;;;14.10;99.90;;;;;;4989372;28;20318;-81
2023/09/15 02:07:11;;;;;;;2.05;1.48;;;14.00;99.90;;;;;;4978322;28;20184;-78
2023/09/15 02:09:37;;;;;;;2.50;1.80;;;14.00;99.90;;;;;;4976977;28;20195;-80
2023/09/15 02:12:02;;;;;;;2.30;1.77;;;14.10;99.90;;;;;;4978348;28;20274;-74
2023/09/15 02:14:28;;;;;;;1.98;1.55;;;14.00;99.90;;;;;;4976087;28;20199;-76
2023/09/15 02:16:56;;;;;;;2.00;1.65;;;14.00;99.90;;;;;;4961711;28;20376;-75
2023/09/15 02:19:24;;;;;;;3.20;1.40;;;14.00;99.90;;;;;;4982470;28;20186;-79
2023/09/15 02:21:52;;;;;;;2.45;1.77;;;14.00;99.90;;;;;;4982127;28;20196;-79
2023/09/15 02:24:18;;;;;;;2.85;2.10;;;13.90;99.90;;;;;;4978300;28;20187;-79
2023/09/15 02:26:44;;;;;;;2.00;1.70;;;14.00;99.90;;;;;;4978689;28;20207;-70
2023/09/15 02:29:09;;;;;;;1.75;1.42;;;14.00;99.90;;;;;;4983728;28;20176;-70
2023/09/15 02:31:35;;;;;;;3.50;1.90;;;13.90;99.90;;;;;;4971722;28;20205;-71
2023/09/15 02:34:03;;;;;;;3.22;1.50;;;13.90;99.90;;;;;;4986922;28;20176;-70
2023/09/15 02:36:31;;;;;;;2.75;1.88;;;13.90;99.90;;;;;;4981313;28;20203;-70
2023/09/15 02:38:56;;;;;;;3.10;1.73;;;13.90;99.90;;;;;;4982132;28;20167;-70
2023/09/15 02:41:22;;;;;;;3.70;1.50;;;13.80;99.90;;;;;;4981687;28;20282;-70
2023/09/15 02:43:48;;;;;;;4.88;1.63;;;13.80;99.90;;;;;;4981518;28;20194;-69
2023/09/15 02:46:16;;;;;;;4.32;1.92;;;13.80;99.90;;;;;;4997822;28;20256;-70
2023/09/15 02:48:42;;;;;;;1.90;1.70;;;13.80;99.90;;;;;;4990158;28;20179;-70
2023/09/15 02:51:08;;;;;;;2.42;1.60;;;13.70;99.90;;;;;;4973399;28;20172;-70
2023/09/15 02:53:33;;;;;;;3.20;1.65;;;13.70;99.90;;;;;;4992058;28;20182;-70
2023/09/15 02:56:01;;;;;;;2.33;1.75;;;13.70;99.90;;;;;;4981950;28;20186;-70
2023/09/15 02:58:27;;;;;;;2.30;1.60;;;13.70;99.90;;;;;;4996684;28;20207;-70
2023/09/15 03:00:53;;;;;;;1.67;1.45;;;13.80;99.90;;;;;;4981591;28;20171;-70
2023/09/15 03:03:19;;;;;;;2.10;1.70;;;13.70;99.90;;;;;;4989044;28;20200;-70
2023/09/15 03:05:46;;;;;;;2.25;1.80;;;13.70;99.90;;;;;;4998349;28;20577;-70
2023/09/15 03:08:12;;;;;;;2.03;1.50;;;13.70;99.90;;;;;;4981240;28;20214;-70
2023/09/15 03:10:40;;;;;;;2.95;1.63;;;13.60;99.90;;;;;;4997740;28;20191;-69
2023/09/15 03:13:06;;;;;;;1.90;1.70;;;13.60;99.90;;;;;;4997335;28;20250;-71
2023/09/15 03:15:33;;;;;;;3.10;1.83;;;13.60;99.90;;;;;;4997809;28;20176;-71
2023/09/15 03:18:01;;;;;;;2.20;1.50;;;13.60;99.90;;;;;;4997188;28;20214;-68
2023/09/15 03:20:27;;;;;;;2.90;1.60;;;13.60;99.90;;;;;;4997724;28;20195;-71
2023/09/15 03:22:59;;;;;;;2.40;1.77;;;13.50;99.90;;;;;;4997704;28;20181;-70
2023/09/15 03:25:25;;;;;;;1.73;1.60;;;13.50;99.90;;;;;;4997349;28;20187;-71
2023/09/15 03:27:53;;;;;;;2.15;1.65;;;13.50;99.90;;;;;;4981284;28;20262;-70
2023/09/15 03:30:19;;;;;;;2.33;1.70;;;13.50;99.90;;;;;;4981324;28;20210;-69
2023/09/15 03:32:44;;;;;;;3.20;2.08;;;13.50;99.90;;;;;;4981421;28;20207;-71
2023/09/15 03:35:10;;;;;;;3.35;1.75;;;13.50;99.90;;;;;;4980822;28;20199;-70
2023/09/15 03:37:38;;;;;;;2.72;2.08;;;13.40;99.90;;;;;;4980812;28;20242;-70
2023/09/15 03:40:08;;;;;;;2.50;1.50;;;13.40;99.90;;;;;;4996466;28;20199;-70
2023/09/15 03:42:39;;;;;;;2.15;1.65;;;13.40;99.90;;;;;;4966715;28;20176;-70
2023/09/15 03:45:08;;;;;;;2.47;1.75;;;13.40;99.90;;;;;;4977474;28;20294;-68
2023/09/15 03:47:34;;;;;;;2.05;1.70;;;13.40;99.90;;;;;;4977868;28;20180;-68
2023/09/15 03:50:02;;;;;;;3.35;1.60;;;13.30;99.90;;;;;;4961360;28;20219;-73
2023/09/15 03:52:28;;;;;;;2.88;1.85;;;13.40;99.90;;;;;;4961477;28;20287;-71
2023/09/15 03:54:54;;;;;;;2.13;1.73;;;13.40;99.90;;;;;;4961629;28;20218;-72
2023/09/15 03:57:22;;;;;;;3.35;1.58;;;13.40;99.90;;;;;;4961627;28;20182;-71
2023/09/15 03:59:50;;;;;;;2.10;1.70;;;13.40;99.90;;;;;;4961111;28;20306;-69
2023/09/15 04:02:20;;;;;;;2.80;1.90;;;13.40;99.90;;;;;;4961063;28;20203;-71
2023/09/15 04:04:46;;;;;;;2.28;1.52;;;13.40;99.90;;;;;;4974719;28;20186;-71
2023/09/15 04:07:14;;;;;;;3.15;1.92;;;13.40;99.90;;;;;;4996554;28;20199;-70
2023/09/15 04:09:42;;;;;;;2.28;1.85;;;13.40;99.90;;;;;;4996668;28;20239;-69
2023/09/15 04:12:08;;;;;;;5.35;3.97;;;13.40;99.90;;;;;;4996754;28;20211;-71
2023/09/15 04:14:36;;;;;;;5.57;3.90;;;13.40;99.90;;;;;;4996643;28;20182;-65
2023/09/15 04:17:04;;;;;;;4.13;3.10;;;13.40;99.90;;;;;;4996354;28;20211;-71
2023/09/15 04:19:32;;;;;;;3.55;2.85;;;13.40;99.90;;;;;;4980407;28;20178;-72
2023/09/15 04:22:00;;;;;;;3.35;2.25;;;13.40;99.90;;;;;;4980316;28;20175;-70
2023/09/15 04:24:28;;;;;;;3.88;2.33;;;13.40;99.90;;;;;;4980157;28;20176;-71
2023/09/15 04:26:56;;;;;;;3.97;2.05;;;13.30;99.90;;;;;;4980045;28;20191;-70
2023/09/15 04:29:22;;;;;;;3.85;2.80;;;13.30;99.90;;;;;;4980044;28;20179;-72
2023/09/15 04:31:47;;;;;;;3.72;2.33;;;13.30;99.90;;;;;;4979893;28;20290;-71
2023/09/15 04:34:15;;;;;;;3.20;2.40;;;13.30;99.90;;;;;;4979995;28;20203;-69
2023/09/15 04:36:42;;;;;;;2.58;2.00;;;13.30;99.90;;;;;;4979259;28;20167;-71
2023/09/15 04:39:10;;;;;;;2.50;2.10;;;13.30;99.90;;;;;;4976656;28;20192;-67
2023/09/15 04:41:38;;;;;;;2.50;2.08;;;13.30;99.90;;;;;;4977239;28;20218;-71
2023/09/15 04:44:04;;;;;;;3.42;1.90;;;13.30;99.90;;;;;;4991139;28;20227;-71
2023/09/15 04:46:32;;;;;;;3.78;2.10;;;13.30;99.90;;;;;;4961871;28;20172;-70
2023/09/15 04:48:58;;;;;;;5.55;3.70;;;13.30;99.90;;;;;;4979407;28;20214;-71
2023/09/15 04:51:23;;;;;;;6.35;3.75;;;13.30;99.90;;;;;;4994957;28;20203;-71
2023/09/15 04:53:49;;;;;;;4.03;3.08;;;13.30;99.90;;;;;;4979239;28;20195;-71
2023/09/15 04:56:14;;;;;;;3.83;2.58;;;13.40;99.90;;;;;;4986113;28;20183;-71
2023/09/15 04:58:40;;;;;;;4.22;2.22;;;13.30;99.90;;;;;;4994295;28;20246;-71
2023/09/15 05:01:07;;;;;;;3.15;2.20;;;13.40;99.90;;;;;;4960245;28;20206;-70
2023/09/15 05:03:33;;;;;;;3.38;2.10;;;13.40;99.90;;;;;;4964211;28;20172;-70
2023/09/15 05:06:03;;;;;;;3.25;2.10;;;13.40;99.90;;;;;;4978121;28;20202;-71
2023/09/15 05:08:29;;;;;;;4.55;2.17;;;13.30;99.90;;;;;;4960012;28;20251;-72
2023/09/15 05:10:54;;;;;;;3.95;2.00;;;13.30;99.90;;;;;;4966162;28;20450;-72
2023/09/15 05:13:25;;;;;;;3.53;2.42;;;13.40;99.90;;;;;;4977215;28;20203;-72
2023/09/15 05:15:50;;;;;;;3.70;2.42;;;13.30;99.90;;;;;;4959866;28;20199;-72
2023/09/15 05:18:18;;;;;;;2.90;2.30;;;13.40;99.90;;;;;;4971155;28;20282;-71
2023/09/15 05:20:49;;;;;;;3.17;2.20;;;13.30;99.90;;;;;;4995187;28;20183;-70
2023/09/15 05:23:17;;;;;;;4.13;2.08;;;13.30;99.90;;;;;;4978685;28;20274;-72
2023/09/15 05:25:42;;;;;;;2.85;1.88;;;13.30;99.90;;;;;;4977202;28;20274;-71
2023/09/15 05:28:09;;;;;;;3.78;2.30;;;13.30;99.90;;;;;;4991354;28;20319;-71
2023/09/15 05:30:34;;;;;;;4.78;2.53;;;13.30;99.90;;;;;;4967849;28;20194;-72
2023/09/15 05:33:00;;;;;;;6.95;4.20;;;13.30;99.90;;;;;;4978620;28;20211;-72
2023/09/15 05:35:26;;;;;;;5.35;4.20;;;13.40;99.90;;;;;;4978430;28;20179;-71
2023/09/15 05:37:51;;;;;;;4.60;3.58;;;13.40;99.90;;;;;;4977685;28;20786;-69
2023/09/15 05:40:17;;;;;;;5.53;3.58;;;13.40;99.90;;;;;;4992511;28;20179;-72
2023/09/15 05:42:43;;;;;;;4.28;2.67;;;13.40;99.90;;;;;;4994448;28;20199;-72
2023/09/15 05:45:09;;;;;;;3.20;2.63;;;13.40;99.90;;;;;;4987173;28;20187;-69
2023/09/15 05:47:34;;;;;;;3.67;2.67;;;13.40;99.90;;;;;;4959419;28;20200;-72
2023/09/15 05:50:03;;;;;;;3.70;2.78;;;13.50;99.90;;;;;;4975282;28;20179;-71
2023/09/15 05:52:28;;;;;;;3.95;2.65;;;13.50;99.90;;;;;;4978082;28;20214;-69
2023/09/15 05:54:56;;;;;;;2.75;2.20;;;13.50;99.90;;;;;;4986472;28;20192;-72
2023/09/15 05:57:22;;;;;;;3.78;2.58;;;13.60;99.90;;;;;;4964610;28;20175;-71
2023/09/15 05:59:50;;;;;;;3.50;2.33;;;13.60;99.90;;;;;;4991246;28;20263;-72
2023/09/15 06:02:16;;;;;;;4.88;2.30;;;13.60;99.90;;;;;;4977334;28;20194;-72
2023/09/15 06:04:43;;;;;;;2.55;2.13;;;13.60;99.90;;;;;;4978171;28;20203;-67
2023/09/15 06:07:11;;;;;;;3.83;2.08;;;13.60;99.90;;;;;;4959473;28;20275;-71
2023/09/15 06:09:36;;;;;;;7.10;4.32;;;13.70;99.90;;;;;;4972360;28;20203;-71
2023/09/15 06:12:05;;;;;;;5.82;4.65;;;13.70;99.90;;;;;;4997117;28;20203;-71
2023/09/15 06:14:35;;;;;;;5.45;4.22;;;13.70;99.90;;;;;;4980418;28;20203;-70
2023/09/15 06:17:02;;;;;;;6.53;2.95;;;13.70;99.90;;;;;;4988521;28;20176;-68
2023/09/15 06:19:28;;;;;;;5.63;3.10;;;13.70;99.90;;;;;;4963006;28;20200;-70
2023/09/15 06:21:58;;;;;;;4.63;3.00;;;13.80;99.90;;;;;;4980214;28;20213;-69
2023/09/15 06:24:24;;;;;;;3.42;2.63;;;13.90;99.90;;;;;;4987301;28;20259;-70
2023/09/15 06:26:53;;;;;;;4.18;2.47;;;13.90;99.90;;;;;;4982214;28;20257;-70
2023/09/15 06:29:18;;;;;;;2.90;2.30;;;13.90;99.90;;;;;;4981581;28;20187;-70
2023/09/15 06:31:46;;;;;;;5.10;2.90;;;13.90;99.90;;;;;;4981890;28;20213;-70
2023/09/15 06:34:14;;;;;;;4.15;2.50;;;13.90;99.90;;;;;;4970132;28;20176;-71
2023/09/15 06:36:40;;;;;;;2.83;2.35;;;14.00;99.90;;;;;;4971432;28;20227;-70
2023/09/15 06:39:07;;;;;;;3.00;2.50;;;14.10;99.90;;;;;;4982675;28;20275;-71
2023/09/15 06:41:33;;;;;;;5.85;2.63;;;14.10;99.90;;;;;;4984709;28;20253;-70
2023/09/15 06:43:59;;;;;;;4.00;2.05;;;14.20;99.90;;;;;;4981033;28;20231;-69
2023/09/15 06:46:29;;;;;;;4.00;2.53;;;14.20;99.90;;;;;;4969827;28;20218;-71
2023/09/15 06:48:55;;;;;;;3.70;2.67;;;14.30;99.90;;;;;;4971403;28;20183;-70
2023/09/15 06:51:23;;;;;;;4.97;2.60;;;14.30;99.90;;;;;;4967827;28;20191;-71
2023/09/15 06:53:49;;;;;;;3.85;2.35;;;14.40;99.90;;;;;;4981564;28;20274;-68
2023/09/15 06:56:17;;;;;;;4.95;2.60;;;14.50;99.90;;;;;;4980969;28;20254;-70
2023/09/15 06:58:43;;;;;;;4.22;2.83;;;14.50;99.90;;;;;;4977646;28;20180;-71
2023/09/15 07:01:08;;;;;;;3.90;2.47;;;14.60;99.90;;;;;;4978417;28;20258;-70
2023/09/15 07:03:34;;;;;;;4.63;2.70;;;14.70;99.90;;;;;;4982433;28;20266;-70
2023/09/15 07:06:02;;;;;;;3.72;2.20;;;14.70;99.90;;;;;;4980813;28;20190;-71
2023/09/15 07:08:27;;;;;;;3.53;2.22;;;14.80;99.90;;;;;;4981185;28;20195;-71
2023/09/15 07:10:53;;;;;;;2.20;1.90;;;14.90;99.90;;;;;;4997036;28;20258;-69
2023/09/15 07:13:18;;;;;;;3.03;2.20;;;15.00;99.90;;;;;;4986390;28;20207;-70
2023/09/15 07:15:44;;;;;;;4.38;2.60;;;15.00;99.90;;;;;;4978396;28;20223;-69
2023/09/15 07:18:10;;;;;;;3.70;2.28;;;15.10;99.90;;;;;;4985524;28;20219;-70
2023/09/15 07:20:38;;;;;;;3.22;2.22;;;15.20;99.90;;;;;;4963429;28;20231;-70
2023/09/15 07:23:04;;;;;;;3.00;1.70;;;15.20;99.90;;;;;;4997192;28;20172;-71
2023/09/15 07:25:29;;;;;;;4.95;2.30;;;15.40;99.90;;;;;;4981161;28;20179;-67
2023/09/15 07:27:55;;;;;;;3.80;2.55;;;15.40;99.90;;;;;;4980558;28;20189;-70
2023/09/15 07:30:25;;;;;;;4.32;2.47;;;15.50;99.90;;;;;;4980668;28;20278;-71
2023/09/15 07:32:56;;;;;;;2.78;2.20;;;15.60;99.90;;;;;;4979678;28;20298;-71
2023/09/15 07:35:22;;;;;;;3.63;2.55;;;15.70;99.90;;;;;;4966304;28;20339;-70
2023/09/15 07:37:50;;;;;;;3.22;2.63;;;15.70;99.90;;;;;;4976881;28;20198;-71
2023/09/15 07:40:19;;;;;;;4.45;2.78;;;15.80;99.90;;;;;;4977472;28;20203;-70
2023/09/15 07:42:47;;;;;;;4.28;2.47;;;15.90;99.90;;;;;;4977279;28;20200;-71
2023/09/15 07:45:14;;;;;;;4.40;3.00;;;16.00;99.90;;;;;;4974219;28;20230;-71
2023/09/15 07:47:40;;;;;;;4.03;2.60;;;16.10;99.90;;;;;;4996644;28;20183;-67
2023/09/15 07:50:06;;;;;;;3.80;2.60;;;16.20;99.90;;;;;;4980346;28;20206;-73
2023/09/15 07:52:33;;;;;;;5.15;2.65;;;16.20;99.90;;;;;;4987871;28;20199;-73
2023/09/15 07:54:59;;;;;;;3.70;2.60;;;16.30;99.90;;;;;;4966882;28;20175;-71
2023/09/15 07:57:25;;;;;;;4.25;2.72;;;16.30;99.90;;;;;;4981251;28;20208;-71
2023/09/15 07:59:51;;;;;;;3.58;2.33;;;16.40;99.90;;;;;;4979543;28;20262;-71
2023/09/15 08:02:16;;;;;;;3.40;2.35;;;16.50;99.90;;;;;;4980471;28;20191;-71
2023/09/15 08:04:47;;;;;;;3.65;2.13;;;16.60;99.90;;;;;;4997173;28;20232;-72
2023/09/15 08:07:12;;;;;;;2.95;2.17;;;16.60;99.90;;;;;;4996072;28;20203;-70
2023/09/15 08:09:40;;;;;;;5.05;2.30;;;16.70;99.90;;;;;;4980072;28;20198;-72
2023/09/15 08:12:06;;;;;;;4.25;2.28;;;16.80;99.90;;;;;;4980147;28;20245;-71
2023/09/15 08:14:32;;;;;;;6.22;2.33;;;16.90;99.90;;;;;;4996394;28;20198;-69
2023/09/15 08:16:59;;;;;;;4.85;2.53;;;16.90;99.90;;;;;;4996121;28;20192;-71
2023/09/15 08:19:26;;;;;;;3.58;2.30;;;17.00;99.90;;;;;;4996360;28;20198;-72
2023/09/15 08:21:54;;;;;;;4.50;2.50;;;17.10;99.90;;;;;;4996160;28;20203;-70
2023/09/15 08:24:22;;;;;;;3.58;2.25;;;17.20;99.90;;;;;;4996025;28;20183;-72
2023/09/15 08:26:50;;;;;;;4.72;2.70;;;17.30;99.90;;;;;;4979758;28;20180;-70
2023/09/15 08:29:18;;;;;;;4.05;2.22;;;17.30;99.90;;;;;;4995788;28;20206;-70
2023/09/15 08:31:43;;;;;;;3.47;2.17;;;17.40;99.90;;;;;;4979075;28;20269;-72
2023/09/15 08:34:09;;;;;;;2.97;1.98;;;17.50;99.90;;;;;;4994465;28;20188;-72
2023/09/15 08:36:37;;;;;;;3.22;2.10;;;17.60;99.90;;;;;;4979408;28;20225;-69
2023/09/15 08:39:05;;;;;;;3.85;2.17;;;17.70;99.90;;;;;;4995200;28;20368;-71
2023/09/15 08:41:48;;;;;;;3.78;2.20;;;17.80;99.90;;;;;;4990386;28;20183;-70
2023/09/15 08:44:17;;;;;;;5.18;2.20;;;17.90;99.90;;;;;;4987985;28;20238;-71
2023/09/15 08:46:44;;;;;;;3.22;2.28;;;18.00;99.90;;;;;;4979480;28;20189;-72
2023/09/15 08:49:09;;;;;;;3.67;2.70;;;18.10;99.90;;;;;;4979533;28;20196;-71
2023/09/15 08:51:39;;;;;;;2.88;2.03;;;18.20;99.90;;;;;;4995319;28;20226;-71
2023/09/15 08:54:05;;;;;;;3.33;2.30;;;18.30;99.90;;;;;;4977834;28;20295;-72
2023/09/15 08:56:32;;;;;;;3.63;2.20;;;18.40;99.90;;;;;;4978001;28;20168;-72
2023/09/15 08:59:03;;;;;;;3.95;2.05;;;18.50;99.90;;;;;;4978209;28;20175;-72
2023/09/15 09:01:32;;;;;;;5.93;2.30;;;18.50;99.90;;;;;;4978217;28;20203;-71
2023/09/15 09:03:58;;;;;;;2.78;2.03;;;18.60;99.90;;;;;;4978326;28;20241;-70
2023/09/15 09:06:27;;;;;;;4.60;2.83;;;18.80;99.90;;;;;;4995292;28;20172;-72
2023/09/15 09:08:56;;;;;;;3.17;2.22;;;18.90;99.90;;;;;;4979085;28;20171;-71
2023/09/15 09:11:23;;;;;;;4.00;2.28;;;19.00;99.90;;;;;;4995313;28;20171;-72
2023/09/15 09:13:51;;;;;;;4.10;1.80;;;19.00;99.90;;;;;;4991915;28;20183;-72
2023/09/15 09:16:20;;;;;;;3.78;1.85;;;19.20;99.90;;;;;;4959605;28;20200;-69
2023/09/15 09:19:07;;;;;;;4.85;2.15;;;19.30;99.90;;;;;;4978086;28;20179;-72
2023/09/15 09:21:34;;;;;;;2.67;1.73;;;19.40;99.90;;;;;;4981143;28;20254;-70
2023/09/15 09:24:00;;;;;;;4.28;1.92;;;19.50;99.90;;;;;;4981058;28;20172;-71
2023/09/15 09:26:28;;;;;;;2.67;1.73;;;19.60;99.90;;;;;;4978251;28;20309;-72
2023/09/15 09:28:57;;;;;;;3.33;2.00;;;19.70;99.90;;;;;;4978808;28;20176;-72
2023/09/15 09:31:30;;;;;;;2.50;1.70;;;19.80;99.90;;;;;;4975542;28;20207;-72
2023/09/15 09:33:57;;;;;;;1.80;1.58;;;19.90;99.90;;;;;;4959487;28;20176;-69
2023/09/15 09:36:25;;;;;;;3.00;1.60;;;20.00;99.90;;;;;;4967306;28;20286;-71
2023/09/15 09:38:55;;;;;;;2.38;1.40;;;20.10;99.90;;;;;;5157833;23;20220;-72
2023/09/15 09:41:28;;;;;;;3.15;1.67;;;20.30;99.90;;;;;;5052618;28;20170;-64
2023/09/15 09:43:56;;;;;;;1.90;1.30;;;20.50;99.90;;;;;;5057226;28;20178;-72
2023/09/15 09:46:22;;;;;;;2.13;1.35;;;20.80;99.90;;;;;;5054677;28;20175;-72
2023/09/15 09:48:54;;;;;;;2.13;1.30;;;21.40;99.90;;;;;;5025494;28;20165;-72
2023/09/15 09:51:23;;;;;;;2.28;1.33;;;22.20;99.90;;;;;;5070563;28;20547;-70
2023/09/15 09:53:55;;;;;;;2.55;1.50;;;23.00;99.90;;;;;;5070519;28;20181;-73
2023/09/15 09:56:24;;;;;;;2.50;1.35;;;23.60;99.90;;;;;;5066965;28;20170;-75
2023/09/15 09:58:49;;;;;;;1.90;1.40;;;24.30;99.90;;;;;;5023389;28;20197;-71
2023/09/15 10:01:15;;;;;;;4.57;1.60;;;24.80;99.90;;;;;;5040073;28;20173;-73
2023/09/15 10:03:42;;;;;;;1.88;1.40;;;25.30;99.90;;;;;;5039916;28;20204;-72
2023/09/15 10:06:12;;;;;;;2.30;1.50;;;25.70;99.90;;;;;;5053647;28;20260;-73
2023/09/15 10:08:45;;;;;;;1.95;1.33;;;26.10;99.90;;;;;;5062029;28;20288;-73
2023/09/15 10:11:14;;;;;;;1.92;1.30;;;26.40;99.90;;;;;;5042043;28;20173;-74
2023/09/15 10:13:43;;;;;;;2.55;1.50;;;26.70;99.90;;;;;;5055906;28;20220;-71
2023/09/15 10:16:19;;;;;;;2.50;1.40;;;26.90;99.90;;;;;;5037249;28;20198;-74
2023/09/15 10:18:48;;;;;;;2.05;1.40;;;27.10;99.90;;;;;;5046800;28;20172;-72
2023/09/15 10:21:17;;;;;;;2.28;1.55;;;27.30;99.90;;;;;;5037530;28;20165;-73
2023/09/15 10:23:44;;;;;;;1.60;1.30;;;27.50;99.90;;;;;;5047869;28;20181;-71
2023/09/15 10:26:12;;;;;;;2.05;1.30;;;27.70;99.90;;;;;;5036694;28;20180;-73
2023/09/15 10:28:45;;;;;;;2.67;1.60;;;27.90;99.90;;;;;;5054468;28;20173;-72
2023/09/15 10:31:13;;;;;;;3.00;1.80;;;28.10;99.90;;;;;;5054154;28;20176;-70
2023/09/15 10:33:40;;;;;;;3.30;1.60;;;28.20;99.90;;;;;;5052927;28;20197;-71
2023/09/15 10:36:05;;;;;;;2.78;1.50;;;28.30;99.90;;;;;;5054169;28;20221;-79
2023/09/15 10:38:34;;;;;;;1.80;1.23;;;28.30;99.90;;;;;;5069906;28;20204;-74
2023/09/15 10:41:03;;;;;;;2.50;1.55;;;28.30;99.90;;;;;;5047285;28;20228;-80
2023/09/15 10:43:29;;;;;;;3.03;1.38;;;28.40;99.90;;;;;;5064854;28;20186;-80
2023/09/15 10:46:02;;;;;;;1.70;1.50;;;28.50;99.90;;;;;;5017231;28;20198;-81
2023/09/15 10:48:43;;;;;;;1.58;1.30;;;28.60;99.90;;;;;;5041152;28;20208;-79
2023/09/15 10:51:12;;;;;;;2.22;1.50;;;28.70;99.90;;;;;;5053158;28;20201;-81
2023/09/15 10:53:45;;;;;;;2.20;1.50;;;28.80;99.90;;;;;;5053122;28;20193;-79
2023/09/15 10:56:12;;;;;;;1.42;1.27;;;28.80;99.90;;;;;;5032924;28;20177;-78
2023/09/15 10:58:46;;;;;;;1.73;1.42;;;28.80;99.90;;;;;;5040075;28;20181;-76
2023/09/15 11:01:13;;;;;;;1.30;1.20;;;28.80;99.90;;;;;;5039860;28;20188;-79
2023/09/15 11:03:40;;;;;;;1.58;1.40;;;28.70;99.90;;;;;;5057164;28;20258;-79
2023/09/15 11:06:10;;;;;;;1.63;1.45;;;28.70;99.90;;;;;;5040043;28;20180;-81
2023/09/15 11:08:36;;;;;;;1.50;1.30;;;28.60;99.90;;;;;;5042419;28;20197;-80
2023/09/15 11:11:04;;;;;;;3.25;1.63;;;28.50;99.90;;;;;;5075939;28;20207;-81
2023/09/15 11:13:33;;;;;;;1.90;1.33;;;28.50;99.90;;;;;;5065272;28;20202;-79
2023/09/15 11:16:02;;;;;;;1.40;1.17;;;28.50;99.90;;;;;;5033249;28;20168;-81
2023/09/15 11:18:32;;;;;;;1.30;1.20;;;28.50;99.90;;;;;;5053976;28;20198;-80
2023/09/15 11:20:58;;;;;;;2.13;1.25;;;28.60;99.90;;;;;;5028057;28;20173;-79
2023/09/15 11:23:27;;;;;;;1.88;1.60;;;28.60;99.90;;;;;;5040549;28;20188;-81
2023/09/15 11:26:05;;;;;;;3.72;1.35;;;28.70;99.90;;;;;;5057527;28;20238;-82
2023/09/15 11:28:35;;;;;;;1.15;0.95;;;28.70;99.90;;;;;;5057062;28;20185;-77
2023/09/15 11:31:04;;;;;;;2.35;1.20;;;28.80;99.90;;;;;;5039969;28;20192;-78
2023/09/15 11:33:41;;;;;;;1.73;1.13;;;28.80;99.90;;;;;;5056520;28;20197;-80
2023/09/15 11:36:10;;;;;;;1.50;1.35;;;28.80;99.90;;;;;;5050719;28;20173;-81
2023/09/15 11:38:38;;;;;;;1.98;1.20;;;28.80;99.90;;;;;;5055914;28;20238;-80
2023/09/15 11:41:05;;;;;;;1.75;1.30;;;28.80;99.90;;;;;;5052989;28;20184;-78
2023/09/15 11:43:30;;;;;;;1.52;1.20;;;28.90;99.90;;;;;;5036118;28;20176;-79
2023/09/15 11:45:59;;;;;;;1.73;1.00;;;28.90;99.90;;;;;;5039735;28;20322;-80
2023/09/15 11:48:25;;;;;;;1.60;1.10;;;29.00;99.90;;;;;;5039870;28;20211;-79
2023/09/15 11:50:53;;;;;;;1.60;1.20;;;29.00;99.90;;;;;;5056599;28;20205;-80
2023/09/15 11:53:26;;;;;;;1.50;1.40;;;29.10;99.90;;;;;;5039948;28;20197;-76
2023/09/15 11:55:51;;;;;;;1.40;1.17;;;29.10;99.90;;;;;;5075169;28;20192;-78
2023/09/15 11:58:23;;;;;;;1.30;1.20;;;29.10;99.90;;;;;;5056531;28;20177;-79
2023/09/15 12:00:49;;;;;;;1.63;1.20;;;29.10;99.90;;;;;;5050595;28;20243;-79
2023/09/15 12:03:15;;;;;;;2.65;1.30;;;29.10;99.90;;;;;;5074255;28;20173;-81
2023/09/15 12:05:41;;;;;;;1.40;1.30;;;29.00;99.90;;;;;;5057684;28;20169;-79
2023/09/15 12:08:09;;;;;;;1.80;1.30;;;29.00;99.90;;;;;;5035213;28;20176;-80
2023/09/15 12:10:35;;;;;;;1.98;1.23;;;29.00;99.90;;;;;;5042372;28;20177;-81
2023/09/15 12:13:00;;;;;;;2.25;1.25;;;29.00;99.90;;;;;;5055433;28;20211;-81
2023/09/15 12:15:29;;;;;;;1.88;1.30;;;29.10;99.90;;;;;;5041647;28;20177;-79
2023/09/15 12:17:56;;;;;;;2.20;1.27;;;29.20;99.90;;;;;;5072358;28;20205;-79
2023/09/15 12:20:25;;;;;;;1.70;1.33;;;29.20;99.90;;;;;;5052608;28;20174;-80
2023/09/15 12:22:54;;;;;;;1.73;1.25;;;29.20;99.90;;;;;;5035909;28;20291;-81
2023/09/15 12:25:20;;;;;;;4.03;1.20;;;29.20;99.90;;;;;;5054659;28;20270;-80
2023/09/15 12:27:49;;;;;;;2.15;1.30;;;29.30;99.90;;;;;;5055174;28;20276;-78
2023/09/15 12:30:15;;;;;;;1.95;1.20;;;29.30;99.90;;;;;;5072137;28;20173;-81
2023/09/15 12:32:46;;;;;;;2.42;1.40;;;29.40;99.90;;;;;;5038483;28;20212;-82
2023/09/15 12:35:14;;;;;;;2.55;1.40;;;29.40;99.90;;;;;;5055517;28;20172;-81
2023/09/15 12:37:42;;;;;;;1.88;1.20;;;29.40;99.90;;;;;;5054869;28;20280;-77
2023/09/15 12:40:11;;;;;;;2.45;1.50;;;29.40;99.90;;;;;;5053457;28;20187;-81
2023/09/15 12:42:37;;;;;;;2.95;1.42;;;29.50;99.90;;;;;;5051846;28;20219;-79
2023/09/15 12:45:04;;;;;;;1.65;1.42;;;29.50;99.90;;;;;;5051730;28;20229;-82
2023/09/15 12:47:31;;;;;;;2.72;1.50;;;29.50;99.90;;;;;;5023029;28;20183;-78
2023/09/15 12:49:57;;;;;;;2.95;1.40;;;29.60;99.90;;;;;;5038642;28;20196;-81
2023/09/15 12:52:22;;;;;;;2.10;1.35;;;29.70;99.90;;;;;;5038194;28;20275;-80